createdAt,value
2018-09-12T00:00:12.427Z,60.03
2018-09-12T00:02:41.273Z,59.65
2018-09-12T00:05:10.135Z,60.03
2018-09-12T00:07:38.998Z,59.59
2018-09-12T00:10:07.869Z,59.66
2018-09-12T00:12:36.779Z,59.71
2018-09-12T00:15:05.656Z,59.74
2018-09-12T00:17:34.469Z,59.61
2018-09-12T00:20:03.375Z,59.54
2018-09-12T00:22:32.197Z,60.14
2018-09-12T00:25:01.194Z,59.91
2018-09-12T00:27:30.073Z,59.45
2018-09-12T00:29:58.966Z,59.48
2018-09-12T00:32:27.826Z,59.98
2018-09-12T00:34:56.689Z,59.30
2018-09-12T00:37:25.539Z,59.58
2018-09-12T00:39:54.373Z,59.24
2018-09-12T00:42:24.434Z,59.46
2018-09-12T00:44:53.241Z,59.19
2018-09-12T00:47:22.041Z,58.57
2018-09-12T00:49:50.931Z,58.41
2018-09-12T00:52:19.751Z,58.08
2018-09-12T00:54:48.594Z,57.89
2018-09-12T00:57:17.415Z,58.17
2018-09-12T00:59:46.311Z,58.64
2018-09-12T01:02:15.181Z,58.54
2018-09-12T01:04:44.149Z,58.16
2018-09-12T01:07:13.008Z,57.98
2018-09-12T01:09:41.918Z,58.32
2018-09-12T01:12:10.813Z,58.11
2018-09-12T01:14:39.639Z,58.99
2018-09-12T01:17:08.508Z,58.95
2018-09-12T01:19:37.325Z,59.19
2018-09-12T01:22:06.148Z,59.15
2018-09-12T01:24:35.013Z,58.55
2018-09-12T01:27:03.842Z,58.30
2018-09-12T01:29:32.712Z,57.99
2018-09-12T01:32:01.617Z,58.35
2018-09-12T01:34:30.489Z,58.71
2018-09-12T01:36:59.308Z,59.85
2018-09-12T01:39:28.162Z,59.70
2018-09-12T01:41:57.025Z,59.64
2018-09-12T01:44:25.825Z,59.83
2018-09-12T01:46:54.719Z,59.96
2018-09-12T01:49:23.519Z,59.80
2018-09-12T01:51:52.338Z,59.69
2018-09-12T01:54:21.227Z,59.23
2018-09-12T01:56:50.057Z,58.63
2018-09-12T01:59:18.883Z,58.88
2018-09-12T02:01:47.741Z,59.01
2018-09-12T02:04:16.546Z,59.34
2018-09-12T02:06:45.391Z,57.66
2018-09-12T02:09:15.343Z,58.74
2018-09-12T02:11:44.182Z,58.04
2018-09-12T02:14:13.044Z,58.53
2018-09-12T02:16:41.908Z,58.38
2018-09-12T02:19:10.711Z,58.63
2018-09-12T02:21:39.551Z,58.62
2018-09-12T02:24:08.406Z,58.90
2018-09-12T02:26:37.411Z,59.49
2018-09-12T02:29:06.441Z,59.77
2018-09-12T02:31:35.250Z,60.07
2018-09-12T02:34:04.102Z,60.97
2018-09-12T02:36:32.970Z,60.95
2018-09-12T02:39:01.791Z,61.04
2018-09-12T02:41:30.685Z,61.05
2018-09-12T02:43:59.635Z,61.51
2018-09-12T02:46:28.577Z,62.63
2018-09-12T02:48:57.455Z,61.90
2018-09-12T02:51:26.392Z,62.39
2018-09-12T02:53:55.260Z,62.14
2018-09-12T02:56:24.147Z,63.29
2018-09-12T02:58:53.082Z,62.68
2018-09-12T03:01:21.978Z,62.77
2018-09-12T03:07:06.003Z,63.84
2018-09-12T03:09:34.909Z,63.82
2018-09-12T03:12:03.749Z,64.17
2018-09-12T03:14:32.650Z,64.37
2018-09-12T03:17:01.494Z,64.12
2018-09-12T03:19:30.440Z,64.97
2018-09-12T03:21:59.325Z,64.82
2018-09-12T03:24:28.265Z,65.37
2018-09-12T03:26:57.119Z,65.30
2018-09-12T03:29:26.061Z,66.10
2018-09-12T03:31:54.923Z,65.93
2018-09-12T03:34:23.743Z,65.59
2018-09-12T03:36:54.272Z,65.66
2018-09-12T03:39:23.086Z,65.64
2018-09-12T03:41:51.918Z,65.19
2018-09-12T03:44:20.827Z,65.56
2018-09-12T03:46:49.653Z,65.17
2018-09-12T03:49:18.474Z,65.05
2018-09-12T03:51:47.301Z,64.70
2018-09-12T03:54:16.187Z,64.38
2018-09-12T03:56:45.003Z,64.23
2018-09-12T03:59:13.933Z,63.75
2018-09-12T04:01:42.794Z,64.39
2018-09-12T04:04:11.615Z,64.29
2018-09-12T04:06:40.437Z,65.17
2018-09-12T04:09:10.042Z,66.51
2018-09-12T04:11:38.880Z,65.80
2018-09-12T04:14:08.453Z,66.20
2018-09-12T04:16:39.024Z,66.63
2018-09-12T04:19:07.861Z,66.12
2018-09-12T04:21:36.693Z,65.40
2018-09-12T04:24:05.646Z,65.68
2018-09-12T04:26:35.104Z,65.34
2018-09-12T04:29:03.943Z,64.68
2018-09-12T04:31:34.201Z,64.83
2018-09-12T04:34:03.030Z,64.28
2018-09-12T04:36:31.853Z,64.74
2018-09-12T04:39:00.769Z,64.59
2018-09-12T04:41:29.608Z,64.36
2018-09-12T04:43:58.510Z,63.83
2018-09-12T04:46:28.802Z,64.39
2018-09-12T04:48:57.675Z,64.05
2018-09-12T04:51:26.570Z,63.97
2018-09-12T04:53:55.434Z,64.27
2018-09-12T04:56:24.249Z,64.27
2018-09-12T04:58:53.130Z,64.09
2018-09-12T05:01:22.069Z,63.43
2018-09-12T05:03:50.891Z,63.26
2018-09-12T05:06:19.714Z,63.71
2018-09-12T05:08:48.570Z,64.12
2018-09-12T05:11:17.442Z,63.33
2018-09-12T05:13:46.278Z,63.67
2018-09-12T05:16:15.137Z,63.21
2018-09-12T05:18:44.035Z,63.10
2018-09-12T05:21:12.827Z,63.23
2018-09-12T05:23:41.768Z,63.44
2018-09-12T05:26:10.622Z,63.57
2018-09-12T05:28:39.520Z,63.66
2018-09-12T05:31:08.338Z,63.71
2018-09-12T05:33:37.163Z,63.32
2018-09-12T05:36:06.325Z,63.85
2018-09-12T05:38:35.241Z,63.46
2018-09-12T05:41:04.090Z,63.92
2018-09-12T05:43:32.906Z,63.70
2018-09-12T05:46:01.770Z,63.85
2018-09-12T05:48:30.623Z,63.33
2018-09-12T05:50:59.445Z,63.52
2018-09-12T05:53:28.262Z,63.76
2018-09-12T05:55:57.118Z,63.44
2018-09-12T05:58:25.989Z,64.01
2018-09-12T06:00:54.810Z,63.47
2018-09-12T06:03:23.607Z,63.73
2018-09-12T06:05:52.474Z,63.60
2018-09-12T06:08:21.397Z,63.12
2018-09-12T06:10:50.342Z,63.30
2018-09-12T06:13:19.151Z,62.77
2018-09-12T06:15:48.046Z,63.18
2018-09-12T06:18:16.859Z,63.29
2018-09-12T06:20:45.707Z,63.35
2018-09-12T06:23:14.577Z,63.49
2018-09-12T06:25:43.394Z,63.82
2018-09-12T06:28:12.270Z,63.97
2018-09-12T06:30:41.191Z,62.82
2018-09-12T06:33:10.161Z,63.18
2018-09-12T06:35:39.139Z,62.48
2018-09-12T06:38:08.136Z,61.37
2018-09-12T06:40:37.124Z,62.45
2018-09-12T06:43:06.486Z,60.65
2018-09-12T06:45:36.680Z,61.72
2018-09-12T06:48:05.943Z,61.20
2018-09-12T06:50:34.899Z,61.66
2018-09-12T06:53:03.923Z,61.61
2018-09-12T06:55:33.014Z,61.79
2018-09-12T06:58:01.963Z,60.68
2018-09-12T07:00:30.900Z,61.13
2018-09-12T07:02:59.931Z,61.65
2018-09-12T07:05:28.906Z,61.00
2018-09-12T07:07:57.860Z,61.26
2018-09-12T07:10:26.824Z,61.43
2018-09-12T07:12:57.253Z,61.11
2018-09-12T07:15:26.232Z,61.28
2018-09-12T07:17:55.242Z,59.64
2018-09-12T07:20:24.451Z,60.27
2018-09-12T07:22:53.526Z,59.90
2018-09-12T07:25:22.442Z,60.17
2018-09-12T07:27:51.460Z,58.91
2018-09-12T07:30:20.465Z,59.31
2018-09-12T07:32:49.356Z,59.41
2018-09-12T07:35:18.339Z,58.98
2018-09-12T07:37:48.772Z,58.95
2018-09-12T07:40:18.003Z,59.18
2018-09-12T07:42:46.955Z,59.76
2018-09-12T07:45:15.941Z,60.48
2018-09-12T07:47:44.908Z,60.63
2018-09-12T07:50:13.819Z,60.01
2018-09-12T07:52:43.977Z,59.35
2018-09-12T07:55:13.015Z,59.07
2018-09-12T07:57:42.086Z,59.51
2018-09-12T08:00:12.753Z,60.25
2018-09-12T08:02:41.674Z,59.83
2018-09-12T08:05:10.721Z,59.23
2018-09-12T08:07:39.700Z,59.00
2018-09-12T08:10:08.709Z,59.33
2018-09-12T08:12:37.713Z,58.24
2018-09-12T08:15:07.992Z,61.07
2018-09-12T08:17:36.996Z,59.26
2018-09-12T08:20:05.984Z,59.12
2018-09-12T08:22:35.041Z,60.14
2018-09-12T08:25:05.517Z,59.35
2018-09-12T08:27:34.473Z,60.17
2018-09-12T08:30:04.893Z,60.31
2018-09-12T08:32:33.869Z,60.31
2018-09-12T08:35:02.864Z,60.01
2018-09-12T08:37:31.880Z,60.31
2018-09-12T08:40:00.901Z,60.53
2018-09-12T08:42:29.883Z,61.72
2018-09-12T08:44:59.082Z,61.84
2018-09-12T08:47:28.070Z,61.29
2018-09-12T08:49:57.055Z,61.26
2018-09-12T08:52:27.440Z,60.97
2018-09-12T08:54:56.428Z,59.49
2018-09-12T08:57:25.409Z,59.83
2018-09-12T08:59:56.164Z,59.96
2018-09-12T09:02:25.133Z,60.22
2018-09-12T09:04:54.076Z,59.81
2018-09-12T09:07:23.119Z,58.67
2018-09-12T09:09:52.040Z,58.69
2018-09-12T09:12:20.907Z,59.71
2018-09-12T09:14:49.873Z,60.73
2018-09-12T09:17:18.847Z,60.81
2018-09-12T09:19:47.775Z,61.44
2018-09-12T09:22:16.805Z,58.81
2018-09-12T09:24:45.756Z,57.78
2018-09-12T09:27:14.828Z,58.22
2018-09-12T09:29:43.815Z,59.13
2018-09-12T09:32:12.772Z,58.49
2018-09-12T09:34:41.768Z,59.31
2018-09-12T09:37:10.700Z,58.15
2018-09-12T09:39:39.695Z,60.19
2018-09-12T09:42:08.710Z,59.30
2018-09-12T09:44:37.633Z,59.95
2018-09-12T09:47:06.724Z,59.36
2018-09-12T09:49:35.671Z,60.09
2018-09-12T09:52:04.724Z,59.86
2018-09-12T09:54:33.722Z,59.08
2018-09-12T09:57:02.745Z,59.51
2018-09-12T09:59:31.705Z,57.07
2018-09-12T10:02:05.629Z,57.96
2018-09-12T10:04:39.627Z,59.04
2018-09-12T10:07:13.560Z,56.43
2018-09-12T10:09:42.592Z,55.74
2018-09-12T10:12:11.616Z,55.16
2018-09-12T10:14:40.572Z,55.29
2018-09-12T10:17:09.521Z,54.84
2018-09-12T10:19:38.459Z,53.25
2018-09-12T10:22:07.469Z,53.86
2018-09-12T10:24:36.511Z,55.19
2018-09-12T10:27:05.630Z,53.98
2018-09-12T10:29:34.573Z,53.36
2018-09-12T10:32:04.617Z,52.18
2018-09-12T10:34:33.580Z,51.98
2018-09-12T10:37:03.820Z,51.44
2018-09-12T10:39:32.718Z,50.59
2018-09-12T10:42:01.629Z,51.17
2018-09-12T10:44:30.612Z,53.65
2018-09-12T10:46:59.499Z,53.26
2018-09-12T10:49:28.379Z,51.64
2018-09-12T10:51:58.549Z,51.01
2018-09-12T10:54:27.419Z,51.19
2018-09-12T10:56:57.658Z,51.25
2018-09-12T10:59:27.840Z,50.33
2018-09-12T11:01:56.820Z,50.09
2018-09-12T11:04:25.929Z,51.60
2018-09-12T11:06:56.097Z,50.06
2018-09-12T11:09:25.079Z,50.89
2018-09-12T11:11:54.087Z,49.58
2018-09-12T11:14:23.055Z,48.45
2018-09-12T11:16:52.281Z,47.79
2018-09-12T11:19:21.237Z,48.97
2018-09-12T11:21:50.260Z,48.76
2018-09-12T11:24:19.240Z,49.31
2018-09-12T11:26:48.324Z,50.81
2018-09-12T11:29:17.231Z,51.26
2018-09-12T11:31:46.207Z,51.61
2018-09-12T11:34:15.170Z,52.21
2018-09-12T11:36:44.304Z,53.08
2018-09-12T11:39:13.382Z,57.68
2018-09-12T11:41:42.534Z,63.09
2018-09-12T11:44:11.587Z,67.85
2018-09-12T11:46:40.574Z,70.08
2018-09-12T11:49:09.668Z,70.56
2018-09-12T11:51:38.673Z,69.68
2018-09-12T11:54:07.668Z,71.03
2018-09-12T11:56:36.644Z,71.47
2018-09-12T11:59:05.620Z,72.72
2018-09-12T12:01:34.621Z,74.45
2018-09-12T12:04:03.675Z,74.37
2018-09-12T12:06:32.633Z,76.22
2018-09-12T12:09:01.616Z,75.88
2018-09-12T12:11:30.754Z,76.27
2018-09-12T12:13:59.736Z,76.37
2018-09-12T12:16:28.802Z,74.38
2018-09-12T12:18:59.016Z,74.81
2018-09-12T12:21:28.473Z,73.33
2018-09-12T12:23:57.458Z,72.07
2018-09-12T12:26:26.505Z,71.94
2018-09-12T12:28:55.632Z,71.77
2018-09-12T12:31:24.632Z,72.49
2018-09-12T12:33:53.637Z,70.70
2018-09-12T12:36:23.989Z,70.80
2018-09-12T12:38:52.988Z,71.50
2018-09-12T12:41:22.001Z,66.85
2018-09-12T12:43:51.019Z,65.40
2018-09-12T12:46:20.029Z,65.57
2018-09-12T12:48:50.208Z,64.60
2018-09-12T12:51:20.477Z,61.31
2018-09-12T12:53:49.458Z,62.57
2018-09-12T12:56:18.400Z,56.64
2018-09-12T12:58:47.500Z,60.02
2018-09-12T13:01:16.502Z,61.33
2018-09-12T13:03:45.500Z,59.18
2018-09-12T13:06:14.540Z,57.32
2018-09-12T13:08:43.544Z,60.37
2018-09-12T13:11:12.544Z,60.54
2018-09-12T13:13:41.657Z,60.08
2018-09-12T13:16:10.639Z,59.86
2018-09-12T13:18:39.655Z,57.19
2018-09-12T13:21:08.771Z,57.17
2018-09-12T13:23:37.812Z,58.12
2018-09-12T13:26:06.914Z,59.71
2018-09-12T13:28:36.163Z,59.25
2018-09-12T13:31:05.182Z,54.66
2018-09-12T13:33:34.192Z,55.97
2018-09-12T13:36:03.252Z,60.42
2018-09-12T13:38:32.225Z,68.77
2018-09-12T13:41:01.192Z,75.45
2018-09-12T13:43:30.276Z,75.57
2018-09-12T13:45:59.268Z,76.27
2018-09-12T13:48:28.270Z,76.33
2018-09-12T13:50:57.304Z,78.13
2018-09-12T13:53:26.283Z,75.59
2018-09-12T13:55:55.289Z,76.12
2018-09-12T13:58:24.151Z,76.15
2018-09-12T14:00:53.100Z,75.17
2018-09-12T14:03:22.178Z,76.13
2018-09-12T14:05:51.109Z,74.92
2018-09-12T14:08:20.132Z,72.54
2018-09-12T14:10:49.059Z,76.27
2018-09-12T14:13:18.049Z,72.69
2018-09-12T14:15:46.977Z,73.23
2018-09-12T14:18:15.853Z,71.51
2018-09-12T14:20:44.977Z,64.39
2018-09-12T14:23:13.931Z,63.06
2018-09-12T14:25:42.946Z,60.25
2018-09-12T14:28:11.869Z,65.67
2018-09-12T14:30:40.830Z,65.92
2018-09-12T14:33:09.708Z,64.81
2018-09-12T14:35:41.830Z,66.69
2018-09-12T14:38:10.741Z,66.34
2018-09-12T14:40:40.841Z,65.65
2018-09-12T14:43:11.364Z,62.85
2018-09-12T14:45:40.322Z,60.64
2018-09-12T14:48:09.225Z,58.91
2018-09-12T14:50:38.272Z,59.17
2018-09-12T14:53:07.293Z,54.96
2018-09-12T14:55:36.302Z,54.59
2018-09-12T14:58:06.594Z,57.16
2018-09-12T15:00:35.492Z,57.18
2018-09-12T15:03:04.539Z,57.26
2018-09-12T15:05:34.610Z,57.91
2018-09-12T15:08:03.518Z,57.23
2018-09-12T15:10:32.477Z,59.10
2018-09-12T15:13:01.690Z,60.38
2018-09-12T15:15:30.537Z,60.58
2018-09-12T15:17:59.410Z,61.71
2018-09-12T15:20:28.347Z,62.71
2018-09-12T15:22:57.249Z,63.52
2018-09-12T15:25:26.093Z,64.14
2018-09-12T15:27:56.307Z,64.66
2018-09-12T15:30:25.201Z,65.93
2018-09-12T15:32:54.082Z,67.00
2018-09-12T15:35:23.012Z,66.78
2018-09-12T15:37:52.044Z,66.96
2018-09-12T15:40:21.002Z,68.44
2018-09-12T15:42:49.942Z,69.12
2018-09-12T15:45:18.807Z,68.95
2018-09-12T15:47:47.691Z,69.40
2018-09-12T15:50:16.626Z,68.93
2018-09-12T15:52:45.571Z,69.53
2018-09-12T15:55:14.439Z,70.31
2018-09-12T15:57:43.352Z,70.66
2018-09-12T16:00:12.280Z,70.68
2018-09-12T16:02:41.227Z,71.58
2018-09-12T16:05:15.431Z,71.96
2018-09-12T16:07:44.588Z,71.90
2018-09-12T16:10:13.522Z,71.90
2018-09-12T16:12:48.508Z,71.96
2018-09-12T16:15:18.798Z,72.38
2018-09-12T16:17:47.703Z,72.87
2018-09-12T16:20:16.578Z,73.00
2018-09-12T16:22:45.579Z,72.90
2018-09-12T16:25:14.482Z,73.43
2018-09-12T16:27:43.362Z,73.53
2018-09-12T16:30:12.286Z,73.74
2018-09-12T16:32:41.221Z,74.25
2018-09-12T16:35:10.147Z,73.87
2018-09-12T16:37:39.034Z,73.50
2018-09-12T16:40:08.147Z,73.75
2018-09-12T16:42:37.005Z,73.71
2018-09-12T16:45:06.011Z,73.83
2018-09-12T16:47:34.982Z,74.09
2018-09-12T16:50:03.997Z,74.13
2018-09-12T16:52:33.222Z,74.84
2018-09-12T16:55:03.359Z,75.01
2018-09-12T16:57:32.223Z,75.67
2018-09-12T17:00:02.331Z,75.61
2018-09-12T17:02:32.453Z,75.37
2018-09-12T17:05:01.306Z,75.38
2018-09-12T17:07:30.149Z,76.23
2018-09-12T17:09:59.060Z,76.17
2018-09-12T17:12:27.873Z,76.82
2018-09-12T17:14:56.710Z,75.74
2018-09-12T17:17:25.568Z,75.40
2018-09-12T17:19:54.431Z,76.95
2018-09-12T17:22:23.290Z,77.15
2018-09-12T17:24:52.190Z,77.85
2018-09-12T17:27:21.059Z,76.69
2018-09-12T17:29:49.933Z,76.84
2018-09-12T17:32:18.877Z,77.29
2018-09-12T17:34:48.229Z,77.82
2018-09-12T17:37:17.068Z,77.72
2018-09-12T17:39:45.914Z,77.00
2018-09-12T17:42:14.816Z,76.64
2018-09-12T17:44:43.681Z,75.59
2018-09-12T17:47:12.598Z,76.13
2018-09-12T17:49:41.590Z,75.82
2018-09-12T17:52:10.456Z,75.87
2018-09-12T17:54:39.351Z,75.75
2018-09-12T17:57:08.310Z,76.12
2018-09-12T17:59:37.154Z,76.15
2018-09-12T18:02:06.022Z,76.08
2018-09-12T18:04:34.972Z,76.47
2018-09-12T18:07:03.825Z,77.05
2018-09-12T18:09:32.725Z,76.73
2018-09-12T18:12:01.682Z,77.35
2018-09-12T18:14:30.523Z,76.78
2018-09-12T18:16:59.388Z,76.94
2018-09-12T18:19:29.682Z,77.49
2018-09-12T18:21:58.683Z,77.46
2018-09-12T18:24:27.743Z,76.80
2018-09-12T18:26:56.640Z,76.57
2018-09-12T18:29:26.972Z,76.68
2018-09-12T18:31:55.814Z,76.08
2018-09-12T18:34:24.656Z,77.11
2018-09-12T18:36:53.615Z,76.95
2018-09-12T18:39:22.476Z,77.16
2018-09-12T18:41:51.331Z,77.16
2018-09-12T18:44:21.549Z,77.32
2018-09-12T18:46:50.383Z,77.83
2018-09-12T18:49:19.444Z,77.37
2018-09-12T18:51:48.299Z,78.00
2018-09-12T18:54:17.126Z,77.70
2018-09-12T18:56:45.986Z,77.85
2018-09-12T18:59:14.891Z,77.34
2018-09-12T19:01:43.827Z,77.59
2018-09-12T19:04:12.813Z,77.39
2018-09-12T19:06:44.581Z,78.29
2018-09-12T19:09:14.943Z,78.20
2018-09-12T19:11:43.868Z,78.23
2018-09-12T19:14:12.782Z,78.66
2018-09-12T19:16:53.912Z,78.30
2018-09-12T19:19:29.166Z,78.05
2018-09-12T19:21:58.200Z,78.55
2018-09-12T19:24:27.052Z,78.37
2018-09-12T19:26:55.905Z,78.68
2018-09-12T19:29:24.791Z,78.58
2018-09-12T19:31:53.688Z,79.64
2018-09-12T19:34:22.546Z,79.91
2018-09-12T19:36:51.447Z,79.57
2018-09-12T19:39:20.552Z,80.03
2018-09-12T19:41:50.934Z,79.70
2018-09-12T19:44:22.438Z,79.47
2018-09-12T19:46:51.322Z,78.71
2018-09-12T19:49:20.373Z,78.81
2018-09-12T19:51:49.406Z,79.40
2018-09-12T19:54:18.412Z,79.38
2018-09-12T19:56:47.928Z,79.84
2018-09-12T19:59:16.816Z,79.68
2018-09-12T20:01:45.707Z,79.54
2018-09-12T20:04:14.627Z,79.15
2018-09-12T20:06:43.510Z,79.85
2018-09-12T20:09:12.651Z,79.70
2018-09-12T20:11:41.838Z,80.08
2018-09-12T20:14:10.908Z,80.05
2018-09-12T20:16:39.774Z,80.51
2018-09-12T20:19:08.670Z,80.42
2018-09-12T20:21:37.518Z,80.71
2018-09-12T20:24:06.502Z,80.39
2018-09-12T20:26:35.327Z,80.43
2018-09-12T20:29:04.155Z,80.19
2018-09-12T20:31:33.045Z,80.04
2018-09-12T20:34:01.922Z,81.07
2018-09-12T20:36:30.738Z,80.86
2018-09-12T20:38:59.602Z,81.16
2018-09-12T20:41:28.484Z,80.63
2018-09-12T20:43:57.514Z,81.04
2018-09-12T20:46:26.347Z,80.77
2018-09-12T20:48:55.290Z,80.88
2018-09-12T20:51:25.350Z,80.87
2018-09-12T20:53:54.246Z,81.48
2018-09-12T20:56:23.075Z,81.59
2018-09-12T20:58:51.959Z,81.14
2018-09-12T21:01:20.793Z,81.07
2018-09-12T21:03:49.626Z,80.74
2018-09-12T21:06:18.497Z,80.57
2018-09-12T21:08:47.311Z,80.45
2018-09-12T21:11:16.138Z,80.70
2018-09-12T21:13:45.175Z,80.55
2018-09-12T21:16:14.018Z,80.86
2018-09-12T21:18:42.846Z,80.77
2018-09-12T21:21:11.706Z,80.49
2018-09-12T21:23:40.606Z,81.38
2018-09-12T21:26:09.505Z,81.26
2018-09-12T21:28:38.510Z,81.01
2018-09-12T21:31:07.430Z,81.45
2018-09-12T21:33:36.328Z,81.17
2018-09-12T21:36:05.306Z,81.60
2018-09-12T21:38:34.221Z,81.05
2018-09-12T21:41:03.194Z,81.27
2018-09-12T21:43:32.301Z,81.50
2018-09-12T21:46:01.162Z,81.93
2018-09-12T21:48:30.054Z,81.60
2018-09-12T21:50:58.942Z,81.85
2018-09-12T21:53:27.758Z,81.55
2018-09-12T21:55:56.573Z,81.85
2018-09-12T21:58:25.474Z,81.79
2018-09-12T22:00:54.436Z,81.82
2018-09-12T22:03:23.422Z,82.08
2018-09-12T22:05:52.344Z,82.31
2018-09-12T22:08:21.164Z,82.67
2018-09-12T22:10:50.050Z,82.39
2018-09-12T22:13:18.961Z,82.39
2018-09-12T22:15:48.357Z,81.81
2018-09-12T22:18:17.228Z,81.95
2018-09-12T22:20:46.066Z,82.29
2018-09-12T22:23:14.886Z,82.01
2018-09-12T22:25:43.871Z,82.38
2018-09-12T22:28:12.718Z,82.74
2018-09-12T22:30:41.555Z,83.15
2018-09-12T22:33:10.445Z,82.88
2018-09-12T22:35:39.273Z,83.21
2018-09-12T22:38:08.111Z,82.98
2018-09-12T22:40:38.237Z,83.41
2018-09-12T22:43:07.224Z,82.92
2018-09-12T22:45:36.072Z,82.69
2018-09-12T22:48:04.914Z,82.73
2018-09-12T22:50:33.896Z,82.75
2018-09-12T22:53:02.722Z,82.25
2018-09-12T22:55:31.551Z,82.68
2018-09-12T22:58:00.426Z,82.65
2018-09-12T23:00:29.347Z,82.48
2018-09-12T23:02:58.158Z,82.43
2018-09-12T23:05:27.075Z,82.08
2018-09-12T23:07:55.881Z,82.21
2018-09-12T23:10:24.708Z,82.09
2018-09-12T23:12:53.590Z,82.79
2018-09-12T23:15:22.430Z,82.70
2018-09-12T23:17:51.298Z,82.62
2018-09-12T23:20:20.158Z,82.64
2018-09-12T23:22:48.979Z,82.29
2018-09-12T23:25:17.867Z,82.69
2018-09-12T23:27:46.707Z,82.79
2018-09-12T23:30:15.510Z,82.42
2018-09-12T23:32:45.598Z,82.65
2018-09-12T23:35:14.455Z,82.58
2018-09-12T23:37:43.305Z,83.19
2018-09-12T23:40:12.159Z,83.16
2018-09-12T23:42:41.014Z,83.45
2018-09-12T23:45:09.849Z,83.11
2018-09-12T23:47:38.663Z,83.01
2018-09-12T23:50:07.641Z,83.42
2018-09-12T23:52:36.450Z,82.86
2018-09-12T23:55:05.316Z,82.84
2018-09-12T23:57:34.174Z,83.11
